Time;durP1;ratioP1;P1;durP2;ratioP2;P2;SDS_P1;SDS_P2;PMS_P1;PMS_P2;Temp;Humidity;BMP_temperature;BMP_pressure;BME280_temperature;BME280_humidity;BME280_pressure;Samples;Min_cycle;Max_cycle;Signal;HPM_P1;HPM_P2
2022/09/20 00:01:07;;;;;;;1.40;1.30;;;;;;;11.01;74.86;94932.78;5012085;28;20547;-74
2022/09/20 00:03:38;;;;;;;1.70;1.40;;;;;;;11.07;74.45;94931.91;5012165;28;20683;-74
2022/09/20 00:06:07;;;;;;;1.40;1.30;;;;;;;11.12;74.51;94937.38;5012056;28;20259;-74
2022/09/20 00:08:33;;;;;;;1.30;1.20;;;;;;;11.16;74.25;94937.75;5011959;28;20179;-74
2022/09/20 00:11:16;;;;;;;3.00;1.30;;;;;;;11.24;74.14;94950.69;5000892;28;20578;-74
2022/09/20 00:13:43;;;;;;;1.50;1.40;;;;;;;11.32;73.15;94951.25;4974612;28;20231;-75
2022/09/20 00:16:11;;;;;;;1.40;1.30;;;;;;;11.48;72.62;94957.81;4992094;28;20195;-74
2022/09/20 00:18:37;;;;;;;1.53;1.30;;;;;;;11.52;72.84;94951.09;4989004;28;20182;-74
2022/09/20 00:21:04;;;;;;;1.80;1.70;;;;;;;11.35;71.85;94921.00;4988030;28;20177;-74
2022/09/20 00:23:30;;;;;;;1.50;1.40;;;;;;;11.36;71.94;94951.59;4992009;28;20275;-74
2022/09/20 00:25:58;;;;;;;1.20;1.20;;;;;;;11.29;72.27;94929.75;4992094;28;21058;-75
2022/09/20 00:28:24;;;;;;;1.57;1.47;;;;;;;11.38;71.54;94920.59;4991991;28;20176;-74
2022/09/20 00:30:51;;;;;;;1.20;1.10;;;;;;;11.42;72.67;94920.94;4992001;28;20204;-75
2022/09/20 00:33:16;;;;;;;1.40;1.30;;;;;;;11.36;72.29;94914.72;4974782;28;20173;-74
2022/09/20 00:35:43;;;;;;;1.40;1.30;;;;;;;11.57;71.73;94934.63;4991809;28;20874;-74
2022/09/20 00:38:10;;;;;;;1.13;1.03;;;;;;;11.58;72.08;94933.63;4991867;28;20530;-75
2022/09/20 00:40:36;;;;;;;1.43;1.33;;;;;;;11.62;71.33;94930.31;4984143;28;20173;-75
2022/09/20 00:43:02;;;;;;;0.90;0.90;;;;;;;11.43;71.10;94927.84;4991703;28;20177;-74
2022/09/20 00:45:29;;;;;;;1.30;1.20;;;;;;;11.49;71.35;94935.72;4991740;28;20552;-74
2022/09/20 00:48:17;;;;;;;1.20;1.10;;;;;;;11.41;71.24;94938.63;4991842;28;20180;-74
2022/09/20 00:50:50;;;;;;;1.00;1.00;;;;;;;11.34;71.25;94938.63;4991483;28;20354;-74
2022/09/20 00:53:19;;;;;;;1.33;1.07;;;;;;;11.03;72.30;94908.84;4991570;28;20263;-74
2022/09/20 00:56:00;;;;;;;1.20;1.10;;;;;;;11.09;72.60;94944.88;4991528;28;20188;-74
2022/09/20 00:58:29;;;;;;;1.10;1.00;;;;;;;10.86;73.27;94948.84;4991548;28;20183;-74
2022/09/20 01:00:56;;;;;;;0.90;0.90;;;;;;;10.72;73.76;94955.22;4991918;28;20184;-74
2022/09/20 01:03:25;;;;;;;1.20;1.10;;;;;;;10.79;73.91;94955.19;4991603;28;20181;-74
2022/09/20 01:05:53;;;;;;;0.97;0.97;;;;;;;10.75;74.29;94943.44;4991496;28;20639;-74
2022/09/20 01:08:23;;;;;;;1.37;1.27;;;;;;;10.88;73.70;94938.94;4991421;28;20177;-74
2022/09/20 01:10:49;;;;;;;1.60;1.40;;;;;;;10.84;72.74;94921.91;4990348;28;20681;-74
2022/09/20 01:13:14;;;;;;;1.87;1.67;;;;;;;10.95;72.34;94942.34;4991374;28;20259;-75
2022/09/20 01:15:42;;;;;;;1.67;1.57;;;;;;;10.75;72.59;94927.63;4991355;28;20227;-74
2022/09/20 01:18:09;;;;;;;1.57;1.40;;;;;;;10.77;72.67;94917.72;4991283;28;20180;-74
2022/09/20 01:20:37;;;;;;;1.70;1.60;;;;;;;10.92;71.58;94934.84;4991375;28;20169;-74
2022/09/20 01:23:36;;;;;;;1.40;1.30;;;;;;;11.13;71.14;94940.81;4991218;28;20169;-74
2022/09/20 01:26:23;;;;;;;1.53;1.43;;;;;;;11.20;70.45;94941.59;4991183;28;20169;-74
2022/09/20 01:28:56;;;;;;;1.53;1.43;;;;;;;11.18;70.58;94925.16;4991192;28;20177;-74
2022/09/20 01:31:30;;;;;;;1.50;1.40;;;;;;;11.31;70.32;94943.53;4991426;28;20288;-74
2022/09/20 01:34:03;;;;;;;1.50;1.40;;;;;;;11.34;69.81;94937.84;4973864;28;20196;-74
2022/09/20 01:36:40;;;;;;;1.90;1.50;;;;;;;11.33;69.42;94941.47;4973821;28;20181;-74
2022/09/20 01:39:14;;;;;;;1.77;1.60;;;;;;;11.32;69.60;94945.97;4990899;28;20207;-74
2022/09/20 01:41:53;;;;;;;1.93;1.83;;;;;;;11.09;69.42;94911.44;4991028;28;20165;-74
2022/09/20 01:44:43;;;;;;;2.23;1.70;;;;;;;11.24;69.49;94948.06;4991089;28;20193;-74
2022/09/20 01:47:31;;;;;;;2.80;1.83;;;;;;;11.21;70.03;94943.19;4991067;28;20177;-74
2022/09/20 01:50:20;;;;;;;4.17;2.00;;;;;;;11.20;70.27;94958.19;4990950;28;20169;-74
2022/09/20 01:52:57;;;;;;;7.10;2.03;;;;;;;11.15;70.43;94958.03;4991050;28;20645;-74
2022/09/20 01:55:41;;;;;;;1.70;1.60;;;;;;;11.10;70.48;94955.22;4973262;28;20184;-74
2022/09/20 01:58:25;;;;;;;1.80;1.70;;;;;;;11.06;70.82;94955.84;4990934;28;20200;-74
2022/09/20 02:00:59;;;;;;;2.20;2.00;;;;;;;11.05;70.93;94948.97;4973565;28;20169;-74
2022/09/20 02:03:39;;;;;;;2.23;1.87;;;;;;;11.01;70.77;94948.56;4990845;28;20176;-74
2022/09/20 02:06:30;;;;;;;1.80;1.70;;;;;;;10.72;71.33;94899.94;4990849;28;20761;-74
2022/09/20 02:09:17;;;;;;;1.90;1.77;;;;;;;10.80;71.33;94926.00;4990829;28;20561;-74
2022/09/20 02:12:13;;;;;;;1.50;1.40;;;;;;;10.81;71.87;94918.91;4990889;28;20608;-74
2022/09/20 02:14:51;;;;;;;1.70;1.60;;;;;;;10.79;72.09;94916.50;4990660;28;20312;-74
2022/09/20 02:17:35;;;;;;;1.50;1.40;;;;;;;10.60;71.86;94901.59;4990813;28;20227;-74
2022/09/20 02:20:09;;;;;;;1.70;1.60;;;;;;;10.73;72.08;94919.13;4990952;28;20177;-74
2022/09/20 02:22:35;;;;;;;1.83;1.73;;;;;;;10.63;72.33;94918.81;4992820;28;20183;-74
2022/09/20 02:25:16;;;;;;;1.50;1.40;;;;;;;10.60;71.64;94920.00;4976807;28;20180;-74
2022/09/20 02:28:23;;;;;;;1.87;1.70;;;;;;;10.46;72.15;94924.53;4994448;28;20260;-74
2022/09/20 02:31:04;;;;;;;3.93;1.80;;;;;;;10.43;72.38;94924.13;4955845;28;20271;-74
2022/09/20 02:33:47;;;;;;;1.70;1.60;;;;;;;10.38;72.93;94924.75;4976561;28;20192;-74
2022/09/20 02:36:53;;;;;;;1.80;1.70;;;;;;;10.37;73.24;94928.41;4993860;28;20177;-74
2022/09/20 02:39:26;;;;;;;2.23;1.70;;;;;;;10.32;73.49;94928.22;4993909;28;20656;-74
2022/09/20 02:41:57;;;;;;;1.80;1.70;;;;;;;10.31;73.49;94931.84;4993734;28;20173;-74
2022/09/20 02:44:44;;;;;;;1.83;1.73;;;;;;;10.16;74.45;94929.44;4993819;28;20259;-74
2022/09/20 02:47:34;;;;;;;1.90;1.80;;;;;;;9.93;75.79;94938.78;4993904;28;20173;-74
2022/09/20 02:50:27;;;;;;;1.80;1.70;;;;;;;9.97;76.05;94940.00;4993747;28;20177;-74
2022/09/20 02:53:12;;;;;;;2.10;1.90;;;;;;;9.76;77.15;94948.94;4993738;28;20255;-74
2022/09/20 02:55:43;;;;;;;2.20;2.00;;;;;;;9.64;78.24;94947.91;4993882;28;20173;-74
2022/09/20 02:58:14;;;;;;;2.10;1.90;;;;;;;9.68;78.48;94941.25;4993902;28;20177;-74
2022/09/20 03:01:00;;;;;;;3.23;2.20;;;;;;;9.67;78.22;94943.06;4993699;28;20609;-74
2022/09/20 03:03:43;;;;;;;2.33;2.13;;;;;;;9.63;78.88;94938.41;4993916;28;21021;-74
2022/09/20 03:06:08;;;;;;;2.47;2.07;;;;;;;9.67;78.71;94940.44;4993520;28;20539;-74
2022/09/20 03:08:44;;;;;;;3.17;1.80;;;;;;;9.69;78.53;94942.84;4985067;28;20185;-74
2022/09/20 03:11:26;;;;;;;3.87;2.73;;;;;;;9.61;78.83;94943.03;4987841;28;20204;-74
2022/09/20 03:14:00;;;;;;;3.57;2.47;;;;;;;9.64;78.78;94940.03;4988743;28;20713;-74
2022/09/20 03:16:31;;;;;;;3.30;3.00;;;;;;;9.62;78.47;94937.59;4992295;28;20188;-74
2022/09/20 03:19:21;;;;;;;4.20;2.90;;;;;;;9.43;79.40;94946.28;4993182;28;20205;-74
2022/09/20 03:21:58;;;;;;;4.30;3.20;;;;;;;9.25;79.84;94946.88;4992993;28;20236;-74
2022/09/20 03:24:35;;;;;;;3.30;2.93;;;;;;;9.34;80.16;94944.88;4993290;28;20184;-74
2022/09/20 03:27:10;;;;;;;2.53;2.33;;;;;;;9.34;80.33;94956.16;4975635;28;20640;-74
2022/09/20 03:29:42;;;;;;;3.03;2.40;;;;;;;9.35;79.89;94952.53;4993097;28;20558;-74
2022/09/20 03:32:49;;;;;;;3.07;2.53;;;;;;;9.27;80.31;94949.28;4993343;28;20288;-74
2022/09/20 03:35:20;;;;;;;4.03;2.20;;;;;;;9.25;80.32;94953.97;4954824;28;20269;-74
2022/09/20 03:38:10;;;;;;;4.00;2.20;;;;;;;9.21;80.45;94958.78;4992721;28;20242;-74
2022/09/20 03:41:11;;;;;;;2.00;1.70;;;;;;;9.21;80.33;94956.16;4989154;28;20194;-74
2022/09/20 03:43:55;;;;;;;2.33;2.13;;;;;;;9.12;80.57;94957.34;4949132;28;20249;-74
2022/09/20 03:46:26;;;;;;;1.80;1.70;;;;;;;8.93;81.04;94956.28;4994930;28;20176;-73
2022/09/20 03:49:29;;;;;;;3.67;2.20;;;;;;;8.99;81.21;94958.13;5012310;28;20168;-73
2022/09/20 03:52:12;;;;;;;2.17;1.97;;;;;;;9.14;81.12;94950.09;4999002;28;20686;-74
2022/09/20 03:54:57;;;;;;;2.33;2.07;;;;;;;9.25;80.53;94952.16;4994948;28;20586;-74
2022/09/20 03:57:38;;;;;;;2.30;2.10;;;;;;;9.35;79.80;94959.59;4978721;28;20177;-75
2022/09/20 04:00:32;;;;;;;3.93;2.30;;;;;;;9.39;78.91;94958.22;4985376;28;20176;-74
2022/09/20 04:03:24;;;;;;;5.23;2.57;;;;;;;9.31;79.15;94948.72;4981268;28;20193;-74
2022/09/20 04:06:36;;;;;;;2.07;1.87;;;;;;;9.36;78.56;94954.16;4987862;28;20191;-74
2022/09/20 04:09:38;;;;;;;8.80;4.80;;;;;;;9.48;78.45;94961.44;4933428;29;20191;-74
2022/09/20 04:12:21;;;;;;;10.47;5.23;;;;;;;9.49;78.35;94973.59;4919100;29;20222;-74
2022/09/20 04:15:04;;;;;;;4.97;3.87;;;;;;;9.51;78.28;94982.09;4985287;28;20228;-74
2022/09/20 04:17:38;;;;;;;6.40;3.80;;;;;;;9.48;78.27;94982.47;4992242;28;20559;-74
2022/09/20 04:20:12;;;;;;;2.43;2.23;;;;;;;9.54;78.11;94984.28;4992099;28;20234;-74
2022/09/20 04:22:41;;;;;;;2.70;2.03;;;;;;;9.52;78.03;94987.09;4985902;28;20199;-74
2022/09/20 04:25:12;;;;;;;2.00;1.80;;;;;;;9.58;77.75;94991.59;5001437;28;20247;-74
2022/09/20 04:27:48;;;;;;;2.93;2.20;;;;;;;9.63;77.27;94996.22;4992173;28;20177;-73
2022/09/20 04:30:26;;;;;;;4.87;3.70;;;;;;;9.66;77.05;94999.28;4991988;28;20259;-73
2022/09/20 04:33:12;;;;;;;12.80;7.20;;;;;;;9.71;76.83;94988.13;4991847;28;20231;-73
2022/09/20 04:38:37;;;;;;;3.20;2.37;;;;;;;9.87;77.11;94993.00;4993912;28;20940;-75
2022/09/20 04:41:33;;;;;;;3.10;2.50;;;;;;;9.94;76.81;94996.44;4991977;28;20169;-75
2022/09/20 04:44:11;;;;;;;8.37;4.43;;;;;;;9.85;76.44;94997.66;4987225;28;20185;-75
2022/09/20 04:46:55;;;;;;;4.57;3.30;;;;;;;9.88;76.36;94991.97;4991840;28;20183;-75
2022/09/20 04:49:35;;;;;;;2.53;2.00;;;;;;;9.92;76.89;94997.66;4974166;28;20177;-75
2022/09/20 04:52:02;;;;;;;14.60;3.37;;;;;;;9.97;77.12;94993.38;4991705;28;20207;-74
2022/09/20 04:55:02;;;;;;;4.03;2.20;;;;;;;10.15;76.02;94996.22;4991586;28;20640;-74
2022/09/20 04:58:09;;;;;;;3.90;2.53;;;;;;;10.37;74.92;94994.19;4991586;28;20187;-74
2022/09/20 05:00:55;;;;;;;11.30;2.93;;;;;;;10.55;74.91;94999.59;4991454;28;20176;-75
2022/09/20 05:03:42;;;;;;;6.60;2.90;;;;;;;12.39;70.04;94995.03;4990860;28;20631;-75
2022/09/20 05:06:55;;;;;;;4.37;2.50;;;;;;;15.06;58.68;94998.59;4990724;28;20219;-75
2022/09/20 05:09:55;;;;;;;4.87;3.23;;;;;;;17.42;52.32;95006.34;4909659;29;20184;-75
2022/09/20 05:12:27;;;;;;;15.77;4.68;;;;;;;19.50;46.43;95006.06;4988832;28;20272;-75
2022/09/20 05:15:29;;;;;;;6.43;4.28;;;;;;;20.59;41.94;95015.53;4990702;28;20723;-75
2022/09/20 05:18:04;;;;;;;8.13;4.00;;;;;;;21.64;39.88;95015.53;4986259;28;20173;-75
2022/09/20 05:21:02;;;;;;;328.80;146.55;;;;;;;22.30;37.69;95015.97;4991346;28;20547;-74
2022/09/20 05:24:14;;;;;;;7.60;2.90;;;;;;;23.45;35.37;95020.50;4938777;28;20735;-76
2022/09/20 05:26:54;;;;;;;11.85;7.22;;;;;;;24.80;33.31;95020.72;4924267;29;20195;-74
2022/09/20 05:29:31;;;;;;;5.45;4.95;;;;;;;25.48;31.36;95020.03;4977009;28;20641;-75
2022/09/20 05:32:25;;;;;;;8.55;4.38;;;;;;;25.98;30.79;95015.50;4991114;28;20235;-75
2022/09/20 05:34:59;;;;;;;3.45;1.40;;;;;;;26.73;29.26;95019.41;4969224;28;20641;-74
2022/09/20 05:37:44;;;;;;;2.75;1.02;;;;;;;26.18;29.43;95020.44;4991365;28;20180;-74
2022/09/20 05:40:28;;;;;;;1.40;1.30;;;;;;;26.35;29.75;95027.13;4990808;28;20185;-74
2022/09/20 05:43:06;;;;;;;2.15;1.17;;;;;;;27.19;29.56;95019.06;4991182;28;20566;-74
2022/09/20 05:46:00;;;;;;;2.17;1.98;;;;;;;27.71;27.92;95025.50;4991190;28;20175;-74
2022/09/20 05:48:43;;;;;;;3.25;2.00;;;;;;;27.50;27.37;95016.34;4962700;28;20206;-74
2022/09/20 05:51:31;;;;;;;1.65;1.40;;;;;;;27.17;28.79;95015.88;4991114;28;20200;-74
2022/09/20 05:54:35;;;;;;;1.80;1.65;;;;;;;27.34;28.10;95022.16;4968668;28;20257;-74
2022/09/20 05:57:06;;;;;;;5.60;2.72;;;;;;;28.50;27.02;95025.31;4992564;28;20172;-74
2022/09/20 06:00:20;;;;;;;3.03;1.77;;;;;;;28.35;26.17;95025.78;4994825;28;20604;-74
2022/09/20 06:03:05;;;;;;;4.47;3.63;;;;;;;28.83;26.49;95031.03;4975441;28;20192;-74
2022/09/20 06:05:44;;;;;;;4.68;3.08;;;;;;;29.35;25.62;95026.25;4994850;28;20231;-74
2022/09/20 06:08:33;;;;;;;3.25;2.50;;;;;;;29.97;24.48;94998.53;4994804;28;20205;-74
2022/09/20 06:11:33;;;;;;;2.08;1.50;;;;;;;30.80;23.88;95028.41;4994604;28;20204;-74
2022/09/20 06:14:14;;;;;;;2.38;1.33;;;;;;;31.63;22.52;95030.91;4989297;28;20220;-75
2022/09/20 06:17:01;;;;;;;2.78;1.65;;;;;;;31.72;22.46;95028.88;4987314;28;20652;-74
2022/09/20 06:19:51;;;;;;;1.35;1.02;;;;;;;31.75;22.50;95024.66;4994604;28;20259;-74
2022/09/20 06:22:40;;;;;;;6.82;4.32;;;;;;;32.19;22.79;95031.09;4994555;28;20180;-74
2022/09/20 06:25:08;;;;;;;1.45;1.30;;;;;;;32.72;21.61;95029.16;4994471;28;20579;-74
2022/09/20 06:27:38;;;;;;;1.08;0.95;;;;;;;32.67;21.89;95026.66;4994449;28;20173;-75
2022/09/20 06:30:13;;;;;;;1.35;1.05;;;;;;;32.37;21.82;95020.72;4994345;28;20173;-75
2022/09/20 06:32:59;;;;;;;1.83;1.27;;;;;;;32.10;21.98;95022.22;4976954;28;20614;-75
2022/09/20 06:35:37;;;;;;;1.95;1.40;;;;;;;31.59;22.63;95019.06;4994184;28;20166;-74
2022/09/20 06:43:47;;;;;;;11.57;1.10;;;;;;;30.09;23.84;95017.63;4994259;28;20188;-74
2022/09/20 06:46:14;;;;;;;3.35;1.25;;;;;;;29.03;25.37;95018.72;4994123;28;20184;-75
2022/09/20 06:48:40;;;;;;;3.60;3.08;;;;;;;28.37;26.21;95020.81;4994087;28;20235;-75
2022/09/20 06:51:08;;;;;;;1.63;1.52;;;;;;;27.26;27.81;94992.38;4992970;28;20643;-75
2022/09/20 06:53:38;;;;;;;2.20;2.00;;;;;;;26.75;28.71;95015.31;4994040;28;20180;-75
2022/09/20 06:56:04;;;;;;;3.15;2.75;;;;;;;25.89;29.38;95011.91;5009226;28;20187;-74
2022/09/20 06:58:30;;;;;;;6.95;5.75;;;;;;;25.38;30.75;95015.63;5013508;28;20180;-74
2022/09/20 07:00:55;;;;;;;3.40;3.10;;;;;;;24.97;31.40;95017.50;5013416;28;20173;-74
2022/09/20 07:03:20;;;;;;;5.50;3.90;;;;;;;24.94;32.12;95026.16;5008725;28;20173;-74
2022/09/20 07:05:46;;;;;;;9.38;6.53;;;;;;;24.65;31.90;95005.63;4993737;28;20169;-74
2022/09/20 07:08:12;;;;;;;2.03;1.70;;;;;;;24.61;31.19;95026.16;4993516;28;20256;-74
2022/09/20 07:10:37;;;;;;;5.88;4.55;;;;;;;23.85;32.72;94996.91;4993432;28;20208;-75
2022/09/20 07:13:04;;;;;;;11.02;7.47;;;;;;;23.29;34.34;95013.69;4993520;28;20181;-73
2022/09/20 07:15:31;;;;;;;7.75;5.35;;;;;;;23.04;34.92;95022.84;4993479;28;20235;-75
2022/09/20 07:17:57;;;;;;;4.72;2.50;;;;;;;22.66;35.78;95032.56;4993424;28;20173;-74
2022/09/20 07:20:23;;;;;;;4.65;2.20;;;;;;;21.95;37.80;95021.53;4993576;28;20276;-74
2022/09/20 07:22:48;;;;;;;2.75;2.20;;;;;;;21.76;38.50;95022.19;4993204;28;20185;-74
2022/09/20 07:25:14;;;;;;;4.00;3.40;;;;;;;21.80;38.40;95028.56;4993456;28;20169;-74
2022/09/20 07:27:39;;;;;;;5.45;3.75;;;;;;;21.87;40.12;95035.53;4993792;28;20869;-74
2022/09/20 07:30:07;;;;;;;5.68;3.95;;;;;;;21.77;38.50;95023.78;4993433;28;20204;-74
2022/09/20 07:32:32;;;;;;;2.95;2.47;;;;;;;21.21;40.97;95025.09;4993245;28;20234;-73
2022/09/20 07:34:58;;;;;;;2.47;1.45;;;;;;;21.25;40.94;95024.28;4993383;28;20256;-73
2022/09/20 07:37:23;;;;;;;1.45;1.33;;;;;;;21.30;40.10;95020.78;4993025;28;20176;-74
2022/09/20 07:39:49;;;;;;;3.05;2.00;;;;;;;20.98;39.57;95018.44;4975239;28;20239;-74
2022/09/20 07:42:14;;;;;;;2.45;1.85;;;;;;;20.80;39.91;95010.97;4992741;28;20195;-74
2022/09/20 07:44:42;;;;;;;6.22;3.25;;;;;;;20.78;40.87;95019.28;4992893;28;20165;-74
2022/09/20 07:47:13;;;;;;;3.95;2.63;;;;;;;20.82;41.28;95014.19;4993217;28;20177;-74
2022/09/20 07:49:38;;;;;;;2.00;1.25;;;;;;;20.95;40.09;95014.44;4965312;28;20652;-75
2022/09/20 07:52:04;;;;;;;1.33;1.00;;;;;;;20.17;40.23;94992.53;4996759;28;20265;-76
2022/09/20 07:54:30;;;;;;;2.00;1.70;;;;;;;20.25;41.42;95017.94;5013133;28;20181;-76
2022/09/20 07:56:55;;;;;;;1.08;1.08;;;;;;;20.41;40.13;95019.56;5012807;28;20183;-75
2022/09/20 07:59:21;;;;;;;4.90;1.90;;;;;;;20.68;40.97;95009.38;5006552;28;20332;-76
2022/09/20 08:01:46;;;;;;;4.75;2.15;;;;;;;20.86;40.13;95008.03;4993328;28;20256;-75
2022/09/20 08:04:12;;;;;;;2.83;1.95;;;;;;;21.15;40.75;95002.88;4994654;28;20173;-77
2022/09/20 08:06:43;;;;;;;8.65;4.22;;;;;;;21.40;39.26;95010.84;4993582;28;20188;-77
2022/09/20 08:09:09;;;;;;;2.90;2.17;;;;;;;21.17;37.63;94983.84;4993670;28;20176;-77
2022/09/20 08:11:36;;;;;;;6.53;2.38;;;;;;;21.03;37.80;94999.69;4985461;28;20203;-76
2022/09/20 08:14:03;;;;;;;5.10;0.90;;;;;;;20.69;38.17;95002.16;4997770;28;20256;-74
2022/09/20 08:16:30;;;;;;;0.95;0.95;;;;;;;20.89;36.91;95009.34;4992747;28;20649;-74
2022/09/20 08:19:00;;;;;;;0.73;0.73;;;;;;;20.99;37.33;94982.56;4992477;28;20576;-74
2022/09/20 08:21:30;;;;;;;1.98;1.08;;;;;;;21.27;38.68;95008.75;4992763;28;20428;-74
2022/09/20 08:23:56;;;;;;;0.90;0.90;;;;;;;21.26;37.81;95011.69;4987387;28;20181;-74
2022/09/20 08:26:25;;;;;;;1.10;1.00;;;;;;;21.02;36.69;95009.59;4992421;28;20181;-75
2022/09/20 08:28:53;;;;;;;5.35;1.30;;;;;;;20.52;37.82;95020.38;4991934;28;20173;-75
2022/09/20 08:31:22;;;;;;;3.63;1.95;;;;;;;20.08;38.53;95010.19;4991335;28;20200;-75
2022/09/20 08:33:51;;;;;;;0.95;0.90;;;;;;;19.92;38.73;95012.03;4991768;28;20668;-75
2022/09/20 08:36:19;;;;;;;2.53;0.90;;;;;;;20.02;40.46;94976.50;4992310;28;20181;-75
2022/09/20 08:38:45;;;;;;;2.63;0.85;;;;;;;20.60;39.69;94966.31;4987999;28;20245;-75
2022/09/20 08:41:19;;;;;;;3.17;0.73;;;;;;;20.77;35.82;94993.59;4988845;28;20193;-75
2022/09/20 08:43:53;;;;;;;2.92;0.65;;;;;;;20.49;36.14;94995.00;4992280;28;20316;-75
2022/09/20 08:46:26;;;;;;;3.33;1.10;;;;;;;19.99;38.12;94987.72;4992119;28;20271;-76
2022/09/20 08:48:52;;;;;;;3.08;1.00;;;;;;;19.85;39.97;94991.97;4988415;28;20217;-74
2022/09/20 08:51:18;;;;;;;1.63;1.40;;;;;;;19.83;39.61;94984.22;4992154;28;20683;-74
2022/09/20 08:53:52;;;;;;;1.58;1.05;;;;;;;20.00;38.59;94980.50;4991036;28;20177;-75
2022/09/20 08:56:19;;;;;;;2.78;1.00;;;;;;;19.36;39.99;94965.69;4998494;28;20183;-76
2022/09/20 08:58:45;;;;;;;4.85;1.80;;;;;;;19.22;41.06;94983.22;4977716;28;20187;-76
2022/09/20 09:01:21;;;;;;;5.60;1.85;;;;;;;19.04;42.27;94979.16;4996278;28;20317;-74
2022/09/20 09:03:50;;;;;;;6.65;1.45;;;;;;;19.06;43.35;94977.03;5002127;28;20176;-74
2022/09/20 09:06:19;;;;;;;0.88;0.82;;;;;;;19.21;42.63;94977.09;4993346;28;20555;-75
2022/09/20 09:08:52;;;;;;;4.80;1.20;;;;;;;19.46;42.80;94976.34;4996189;28;20180;-74
2022/09/20 09:11:22;;;;;;;1.00;1.00;;;;;;;19.42;40.47;94977.16;4991745;28;20733;-75
2022/09/20 09:14:47;;;;;;;4.93;1.20;;;;;;;19.26;40.84;94968.31;4980506;28;20240;-79
2022/09/20 09:16:56;;;;;;;4.55;1.20;;;;;;;19.02;42.31;94965.28;4993027;28;20327;-74
2022/09/20 09:19:26;;;;;;;6.15;1.65;;;;;;;18.86;43.35;94963.59;4991608;28;20188;-76
2022/09/20 09:21:59;;;;;;;3.40;1.10;;;;;;;18.56;42.19;94961.53;4996397;28;20259;-78
2022/09/20 09:24:25;;;;;;;1.63;1.00;;;;;;;18.41;43.41;94959.59;5011743;28;20173;-77
2022/09/20 09:27:05;;;;;;;5.78;1.25;;;;;;;18.30;43.72;94952.56;4996860;28;20263;-77
2022/09/20 09:29:31;;;;;;;2.97;0.90;;;;;;;18.21;42.98;94914.13;4992097;28;20177;-76
2022/09/20 09:32:36;;;;;;;3.10;1.10;;;;;;;18.43;42.79;94952.13;4999437;28;20208;-75
2022/09/20 09:35:26;;;;;;;1.20;1.08;;;;;;;18.39;43.62;94951.03;5015356;28;20554;-75
2022/09/20 09:38:00;;;;;;;1.50;1.40;;;;;;;18.44;43.31;94936.94;4989173;28;20944;-75
2022/09/20 09:40:28;;;;;;;1.20;1.10;;;;;;;18.41;43.09;94937.47;4988995;28;20215;-75
2022/09/20 09:42:56;;;;;;;0.90;0.90;;;;;;;18.78;43.80;94926.75;4994649;28;20191;-75
2022/09/20 09:45:38;;;;;;;1.75;0.70;;;;;;;18.51;41.51;94923.41;4994539;28;20260;-75
2022/09/20 09:48:36;;;;;;;2.08;1.30;;;;;;;18.14;44.13;94934.88;4994621;28;20195;-75
2022/09/20 09:51:14;;;;;;;3.78;1.40;;;;;;;18.13;43.50;94925.28;4951225;28;20710;-75
2022/09/20 09:53:40;;;;;;;2.85;0.80;;;;;;;18.28;44.28;94917.38;4992670;28;20271;-74
2022/09/20 09:56:13;;;;;;;2.05;1.10;;;;;;;18.79;44.76;94939.00;4993874;28;20189;-75
2022/09/20 09:59:11;;;;;;;0.90;0.90;;;;;;;19.04;41.41;94933.78;4994213;28;20200;-75
2022/09/20 10:02:05;;;;;;;1.10;1.00;;;;;;;19.19;41.61;94930.38;4973408;28;20667;-75
2022/09/20 10:04:40;;;;;;;1.55;1.13;;;;;;;19.31;39.13;94922.13;4993770;28;20272;-75
2022/09/20 10:07:24;;;;;;;1.45;1.05;;;;;;;19.31;41.24;94927.47;4976190;28;20188;-75
2022/09/20 10:10:01;;;;;;;6.57;1.60;;;;;;;19.22;42.09;94935.19;4994166;28;20664;-74
2022/09/20 10:12:45;;;;;;;1.55;1.40;;;;;;;19.41;42.93;94935.50;4994027;28;20284;-75
2022/09/20 10:15:31;;;;;;;1.85;1.35;;;;;;;19.65;41.00;94930.50;4993833;28;20227;-75
2022/09/20 10:18:25;;;;;;;0.93;0.93;;;;;;;19.41;39.57;94920.28;4993906;28;20683;-75
2022/09/20 10:20:58;;;;;;;0.77;0.77;;;;;;;19.28;40.84;94925.34;4994011;28;20319;-74
2022/09/20 10:23:56;;;;;;;3.15;1.17;;;;;;;19.41;41.71;94930.97;4994042;28;20199;-75
2022/09/20 10:26:44;;;;;;;1.10;1.00;;;;;;;19.58;41.07;94925.41;4976342;28;20273;-75
2022/09/20 10:29:16;;;;;;;0.80;0.80;;;;;;;19.75;38.69;94922.50;4980669;28;20554;-75
2022/09/20 10:32:09;;;;;;;1.55;1.08;;;;;;;19.60;38.84;94896.59;4993877;28;20660;-75
2022/09/20 10:34:56;;;;;;;2.10;1.45;;;;;;;19.34;38.57;94930.44;4993791;28;20176;-75
2022/09/20 10:37:46;;;;;;;1.20;1.10;;;;;;;19.07;38.16;94925.28;4993822;28;20284;-74
2022/09/20 10:40:14;;;;;;;1.85;0.80;;;;;;;18.77;38.89;94917.13;4993924;28;20180;-75
2022/09/20 10:45:47;;;;;;;1.63;1.52;;;;;;;18.97;42.19;94925.22;4986403;28;20188;-75
2022/09/20 10:48:47;;;;;;;3.55;1.75;;;;;;;19.12;40.83;94927.13;4993547;28;20180;-75
2022/09/20 10:51:30;;;;;;;1.30;1.25;;;;;;;19.15;41.03;94926.63;4993273;28;20289;-75
2022/09/20 10:54:19;;;;;;;2.42;1.20;;;;;;;19.19;39.98;94925.84;4993312;28;20243;-75
2022/09/20 10:56:54;;;;;;;1.30;1.20;;;;;;;19.13;40.63;94921.53;4993291;28;20190;-74
2022/09/20 10:59:41;;;;;;;7.75;1.15;;;;;;;19.11;40.39;94925.56;4993194;28;20176;-75
2022/09/20 11:02:13;;;;;;;0.98;0.95;;;;;;;19.09;39.13;94920.47;4993135;28;20642;-75
2022/09/20 11:04:44;;;;;;;1.23;0.85;;;;;;;19.03;39.44;94913.50;4993082;28;20181;-75
2022/09/20 11:07:32;;;;;;;2.08;1.20;;;;;;;19.09;40.87;94915.13;4993246;28;20644;-75
2022/09/20 11:10:13;;;;;;;2.28;1.73;;;;;;;19.19;39.79;94912.50;4980188;28;20208;-75
2022/09/20 11:13:09;;;;;;;1.45;1.20;;;;;;;19.20;39.04;94898.06;4993141;28;20276;-75
2022/09/20 11:15:44;;;;;;;1.17;1.08;;;;;;;19.34;40.17;94905.59;4975421;28;20232;-75
2022/09/20 11:18:14;;;;;;;0.90;0.90;;;;;;;19.23;38.67;94908.22;4992848;28;20185;-75
2022/09/20 11:20:49;;;;;;;1.92;1.63;;;;;;;19.23;39.88;94902.88;4992915;28;20239;-75
2022/09/20 11:23:26;;;;;;;3.63;2.72;;;;;;;19.07;39.60;94879.09;4993069;28;20188;-75
2022/09/20 11:26:01;;;;;;;1.95;1.70;;;;;;;19.10;40.30;94890.06;4992814;28;20180;-75
2022/09/20 11:28:51;;;;;;;1.27;1.17;;;;;;;19.10;39.80;94903.41;4992742;28;20675;-75
2022/09/20 11:31:27;;;;;;;3.20;1.50;;;;;;;19.00;40.16;94903.38;4992974;28;20308;-75
2022/09/20 11:34:04;;;;;;;1.80;1.13;;;;;;;18.98;40.33;94904.69;4992591;28;20197;-75
2022/09/20 11:36:38;;;;;;;0.95;0.85;;;;;;;18.81;39.24;94897.69;4992591;28;20176;-75
2022/09/20 11:39:20;;;;;;;2.55;1.10;;;;;;;18.85;40.63;94896.09;4992464;28;20176;-75
2022/09/20 11:41:48;;;;;;;0.90;0.90;;;;;;;18.67;39.36;94887.78;4992737;28;20292;-75
2022/09/20 11:44:18;;;;;;;1.92;0.93;;;;;;;18.30;40.19;94888.59;4992743;28;20185;-75
2022/09/20 11:47:02;;;;;;;1.30;0.95;;;;;;;18.23;40.89;94889.91;4992449;28;20607;-75
2022/09/20 11:49:40;;;;;;;8.18;1.50;;;;;;;18.30;41.42;94877.94;4992563;28;20211;-75
2022/09/20 11:52:28;;;;;;;5.05;1.45;;;;;;;17.57;41.43;94882.19;4992148;28;20264;-75
2022/09/20 11:55:14;;;;;;;5.80;1.33;;;;;;;17.48;43.05;94881.03;4991485;28;20608;-75
2022/09/20 11:57:39;;;;;;;8.13;1.83;;;;;;;17.65;43.40;94876.41;4992162;28;20627;-75
2022/09/20 12:00:07;;;;;;;1.00;0.95;;;;;;;17.81;42.81;94876.56;4992069;28;20205;-75
2022/09/20 12:02:42;;;;;;;1.30;0.98;;;;;;;17.97;41.49;94873.75;4992222;28;20549;-75
2022/09/20 12:05:23;;;;;;;4.97;1.35;;;;;;;17.96;41.70;94863.34;4992049;28;20173;-74
2022/09/20 12:07:52;;;;;;;0.82;0.82;;;;;;;18.00;41.86;94875.88;4988759;28;20670;-75
2022/09/20 12:10:20;;;;;;;1.85;1.05;;;;;;;17.98;41.45;94871.91;4991600;28;20661;-75
2022/09/20 12:12:49;;;;;;;3.63;1.15;;;;;;;17.88;41.33;94869.97;4991956;28;20218;-75
2022/09/20 12:15:30;;;;;;;1.60;1.50;;;;;;;17.82;41.91;94872.81;4991752;28;20775;-75
2022/09/20 12:17:56;;;;;;;1.27;1.13;;;;;;;17.85;41.68;94865.13;4991905;28;20617;-75
2022/09/20 12:20:33;;;;;;;1.45;0.98;;;;;;;17.91;40.10;94865.97;4991870;28;20231;-75
2022/09/20 12:23:39;;;;;;;2.05;0.95;;;;;;;17.96;41.66;94868.66;4991556;28;20185;-75
2022/09/20 12:26:12;;;;;;;0.70;0.70;;;;;;;18.13;40.38;94860.53;4990613;28;20199;-75
2022/09/20 12:28:42;;;;;;;3.17;1.10;;;;;;;18.31;41.09;94868.91;4991604;28;20185;-75
2022/09/20 12:31:32;;;;;;;1.42;1.05;;;;;;;18.46;40.11;94866.31;4991827;28;20197;-75
2022/09/20 12:34:12;;;;;;;1.00;1.00;;;;;;;18.50;40.26;94869.25;4991722;28;20181;-75